ADDS METAR Data INFO
IDs: Format: Raw Decoded Include TAF

Data at: 1247 UTC 19 Oct 2017

KINL 191155Z AUTO 26006KT 10SM CLR 04/M06 A2988 RMK AO2 SLP129 T00391056 10083 20039 51020
KINL 191055Z AUTO 25006KT 10SM CLR 04/M06 A2986 RMK AO2 SLP121 T00441061
KINL 190955Z AUTO 24006KT 10SM CLR 05/M07 A2985 RMK AO2 SLP114 T00501067
KINL 190855Z AUTO 24008KT 10SM CLR 06/M08 A2982 RMK AO2 SLP105 T00561078 51017
KINL 190755Z AUTO 26007KT 10SM CLR 07/M08 A2981 RMK AO2 SLP100 T00721083
KINL 190655Z AUTO 26007KT 10SM CLR 08/M08 A2979 RMK AO2 SLP093 T00781083
KINL 190555Z AUTO 27009G16KT 10SM CLR 08/M09 A2977 RMK AO2 SLP086 T00831089 10117 20083 401830083 51012
KINL 190455Z AUTO 26012G17KT 10SM CLR 09/M09 A2976 RMK AO2 SLP082 T00891094
KINL 190355Z AUTO 27013G20KT 10SM CLR 10/M10 A2975 RMK AO2 SLP078 T01001100
KINL 190255Z AUTO 26014G21KT 10SM CLR 10/M09 A2974 RMK AO2 SLP074 T01001094 51012
KINL 190155Z AUTO 26010G19KT 10SM CLR 11/M10 A2973 RMK AO2 PK WND 25026/0142 SLP070 T01061100
KINL 190055Z AUTO 26012G22KT 10SM CLR 11/M09 A2971 RMK AO2 SLP066 T01111094
KINL 182355Z AUTO 25011G18KT 10SM CLR 12/M10 A2970 RMK AO2 PK WND 26031/2314 SLP061 T01171100 10167 20117 53019
KINL 182255Z AUTO 27017G29KT 10SM CLR 13/M11 A2967 RMK AO2 PK WND 28031/2213 SLP051 T01331111
KINL 182155Z AUTO 27014G28KT 10SM CLR 15/M11 A2966 RMK AO2 PK WND 27034/2102 SLP046 T01501111
KINL 182055Z AUTO 27017G28KT 10SM CLR 16/M08 A2964 RMK AO2 PK WND 25031/2028 SLP040 T01561078 53004
KINL 181955Z AUTO 26014G27KT 10SM CLR 16/M06 A2964 RMK AO2 PK WND 24033/1908 SLP039 T01611061
KINL 181855Z AUTO 27018G29KT 10SM CLR 16/M07 A2963 RMK AO2 PK WND 26035/1813 SLP036 T01561072
KINL 181755Z AUTO 28016G24KT 10SM CLR 17/M07 A2963 RMK AO2 PK WND 29033/1744 SLP036 60000 T01671072 10183 20139 51021
KINL 181655Z AUTO 27019G28KT 10SM CLR 18/M01 A2961 RMK AO2 PK WND 27030/1635 RAE15 SLP029 P0000 T01781011
KINL 181555Z AUTO 27014G24KT 10SM -RA CLR 17/02 A2959 RMK AO2 RAB42 SLP022 P0000 T01720017
KINL 181455Z AUTO 24009KT 10SM CLR 17/03 A2957 RMK AO2 SLP013 T01670033 51016
KINL 181355Z AUTO 23008G17KT 10SM CLR 15/03 A2955 RMK AO2 SLP009 T01500033
KINL 181255Z AUTO 23011KT 10SM CLR 15/03 A2954 RMK AO2 SLP006 T01500033
KINL 181155Z AUTO 20009KT 10SM CLR 14/03 A2952 RMK AO2 SLP998 T01390028 10150 20133 58026
KINL 181055Z AUTO 19010KT 10SM CLR 14/03 A2955 RMK AO2 SLP007 T01390028
KINL 180955Z AUTO 19010G20KT 150V220 10SM CLR 15/03 A2957 RMK AO2 SLP014 T01500033
KINL 180855Z AUTO 20013G22KT 10SM CLR 15/03 A2960 RMK AO2 SLP023 T01500033 58017
KINL 180755Z AUTO 19007KT 10SM CLR 13/03 A2963 RMK AO2 SLP034 T01330033
KINL 180655Z AUTO 19007KT 10SM CLR 14/03 A2964 RMK AO2 SLP036 T01390033
KINL 180555Z AUTO VRB06KT 10SM CLR 14/03 A2965 RMK AO2 SLP041 T01390033 10161 20139 402221022 56017
KINL 180455Z AUTO 19008KT 10SM CLR 14/03 A2967 RMK AO2 SLP048 T01440028
KINL 180355Z AUTO 19008KT 10SM CLR 15/03 A2969 RMK AO2 SLP056 T01500028
KINL 180255Z AUTO 18007KT 140V210 10SM CLR 15/03 A2971 RMK AO2 SLP064 T01500028 58013
KINL 180155Z AUTO 18005KT 10SM CLR 16/03 A2972 RMK AO2 SLP073 T01560028
KINL 180055Z AUTO 18005KT 10SM CLR 16/03 A2974 RMK AO2 SLP079 T01560028